Time;durP1;ratioP1;P1;durP2;ratioP2;P2;SDS_P1;SDS_P2;PMS_P1;PMS_P2;Temp;Humidity;BMP_temperature;BMP_pressure;BME280_temperature;BME280_humidity;BME280_pressure;Samples;Min_cycle;Max_cycle;Signal;HPM_P1;HPM_P2
2022/01/16 00:00:40;;;;;;;182.17;80.67;;;;;;;0.78;77.68;101268.84;2210204;79;29893;-61
2022/01/16 00:06:54;;;;;;;191.00;82.45;;;;;;;0.65;77.47;101254.27;2063419;84;29413;-64
2022/01/16 00:09:55;;;;;;;181.32;82.95;;;;;;;0.58;77.41;101266.95;2084714;85;31870;-62
2022/01/16 00:12:59;;;;;;;187.80;81.05;;;;;;;0.46;77.17;101267.73;2085203;85;33339;-62
2022/01/16 00:16:04;;;;;;;183.35;89.40;;;;;;;0.36;77.23;101256.23;2086143;85;28834;-61
2022/01/16 00:19:06;;;;;;;185.67;81.22;;;;;;;0.27;77.16;101249.58;2086861;83;27783;-62
2022/01/16 00:22:13;;;;;;;179.68;82.53;;;;;;;0.17;77.06;101264.42;2086293;85;29200;-65
2022/01/16 00:25:11;;;;;;;186.25;85.87;;;;;;;0.06;76.95;101282.77;2086415;85;31063;-66
2022/01/16 00:28:13;;;;;;;186.82;80.40;;;;;;;-0.06;76.90;101274.30;2086581;83;32781;-62
2022/01/16 00:31:16;;;;;;;165.45;77.10;;;;;;;-0.19;76.81;101261.88;2086240;83;28910;-66
2022/01/16 00:34:18;;;;;;;173.28;77.30;;;;;;;-0.31;76.81;101254.31;2086212;85;27728;-63
2022/01/16 00:37:19;;;;;;;180.20;80.35;;;;;;;-0.44;76.73;101205.04;2086454;85;29356;-62
2022/01/16 00:40:21;;;;;;;178.70;76.17;;;;;;;-0.56;76.76;101218.94;2085639;83;31006;-63
2022/01/16 00:43:23;;;;;;;170.05;73.12;;;;;;;-0.66;76.82;101223.22;2140936;79;33010;-63
2022/01/16 00:46:25;;;;;;;175.47;74.40;;;;;;;-0.77;76.87;101224.84;2239333;79;29943;-64
2022/01/16 00:49:26;;;;;;;166.45;75.15;;;;;;;-0.86;76.87;101245.34;2241346;78;28353;-63
2022/01/16 00:52:28;;;;;;;165.75;72.12;;;;;;;-0.94;76.88;101260.13;2211972;79;28437;-63
2022/01/16 00:55:32;;;;;;;168.47;73.62;;;;;;;-1.03;76.86;101274.48;2241510;79;31628;-63
2022/01/16 00:58:37;;;;;;;170.53;71.85;;;;;;;-1.12;76.89;101252.89;2240795;79;33643;-64
2022/01/16 01:01:38;;;;;;;167.65;72.30;;;;;;;-1.19;76.89;101241.81;2241106;79;28845;-62
2022/01/16 01:04:41;;;;;;;169.10;71.82;;;;;;;-1.29;76.87;101236.45;2241311;79;27657;-66
2022/01/16 01:07:43;;;;;;;165.30;72.30;;;;;;;-1.41;76.80;101255.98;2256588;78;28687;-62
2022/01/16 01:10:48;;;;;;;170.15;72.85;;;;;;;-1.50;76.96;101249.26;2264228;78;31831;-63
2022/01/16 01:17:03;;;;;;;156.85;70.70;;;;;;;-1.63;77.11;101266.15;2264597;78;28718;-63
2022/01/16 01:20:07;;;;;;;156.93;68.95;;;;;;;-1.72;77.07;101227.48;2241251;79;27757;-62
2022/01/16 01:23:11;;;;;;;169.22;70.65;;;;;;;-1.81;77.07;101235.19;2265560;78;28645;-62
2022/01/16 01:26:12;;;;;;;164.20;68.15;;;;;;;-1.87;77.16;101230.73;2225202;80;30987;-61
2022/01/16 01:29:18;;;;;;;155.27;67.37;;;;;;;-1.93;77.09;101240.25;2265472;78;34137;-62
2022/01/16 01:32:18;;;;;;;161.68;67.20;;;;;;;-2.02;77.14;101253.69;2265191;78;29171;-62
2022/01/16 01:35:20;;;;;;;166.92;69.12;;;;;;;-2.08;77.24;101244.38;2265916;78;27599;-62
2022/01/16 01:38:21;;;;;;;153.95;65.57;;;;;;;-2.12;77.33;101251.73;2265348;78;28763;-62
2022/01/16 01:41:25;;;;;;;146.98;67.27;;;;;;;-2.16;77.38;101210.13;2265549;78;30426;-62
2022/01/16 01:51:08;;;;;;;148.20;64.80;;;;;;;-2.26;77.42;101107.16;2258432;78;27705;-63
2022/01/16 01:54:12;;;;;;;158.72;66.30;;;;;;;-2.31;77.42;101108.37;2258025;78;28807;-62
2022/01/16 01:57:14;;;;;;;156.78;65.30;;;;;;;-2.34;77.44;101154.69;2261161;78;31011;-63
2022/01/16 02:00:18;;;;;;;161.15;66.02;;;;;;;-2.38;77.42;101155.48;2232222;79;34250;-65
2022/01/16 02:03:28;;;;;;;159.82;67.08;;;;;;;-2.42;77.49;101172.92;2260798;78;30100;-64
2022/01/16 02:06:26;;;;;;;150.35;65.37;;;;;;;-2.46;77.49;101156.66;2266755;78;27634;-63
2022/01/16 02:09:32;;;;;;;140.68;63.63;;;;;;;-2.50;77.37;101164.91;2232543;79;27607;-65
2022/01/16 02:12:37;;;;;;;109.42;47.62;;;;;;;-2.54;77.38;101172.27;2272894;78;31013;-62
2022/01/16 02:35:09;;;;;;;160.32;65.87;;;;;;;-2.83;77.51;101184.41;2232550;79;28974;-62
2022/01/16 02:38:13;;;;;;;157.27;68.70;;;;;;;-2.86;77.52;101182.16;2273660;78;27601;-63
2022/01/16 02:41:15;;;;;;;166.85;71.37;;;;;;;-2.93;77.61;101178.09;2272574;78;29108;-62
2022/01/16 02:44:29;;;;;;;157.27;66.22;;;;;;;-2.95;77.94;101183.73;2273557;78;31882;-62
2022/01/16 02:47:24;;;;;;;161.60;71.22;;;;;;;-2.95;77.81;101173.23;2228104;79;34174;-62
2022/01/16 02:50:27;;;;;;;161.43;67.58;;;;;;;-2.98;77.70;101178.45;2193333;80;29190;-62
2022/01/16 02:53:28;;;;;;;157.82;66.10;;;;;;;-3.01;77.64;101160.03;2231389;79;28330;-62
2022/01/16 02:56:35;;;;;;;166.10;69.17;;;;;;;-3.06;77.56;101152.05;2229374;79;29049;-62
2022/01/16 02:59:35;;;;;;;166.88;71.22;;;;;;;-3.10;77.53;101156.80;2304773;76;31799;-62
2022/01/16 03:02:37;;;;;;;176.15;71.07;;;;;;;-3.12;77.53;101143.18;2269606;78;33359;-62
2022/01/16 03:05:39;;;;;;;178.20;71.72;;;;;;;-3.16;77.55;101147.48;2269099;78;29867;-62
2022/01/16 03:08:41;;;;;;;169.02;74.42;;;;;;;-3.19;77.52;101147.42;2267132;78;27643;-61
2022/01/16 03:11:49;;;;;;;164.07;72.08;;;;;;;-3.22;77.50;101140.80;2269538;78;28672;-62
2022/01/16 03:14:52;;;;;;;164.15;69.25;;;;;;;-3.25;77.47;101143.38;2290790;77;32298;-62
2022/01/16 03:24:37;;;;;;;166.77;72.10;;;;;;;-3.36;77.60;101097.30;2241263;79;27696;-62
2022/01/16 03:27:39;;;;;;;197.65;79.35;;;;;;;-3.38;77.66;101093.33;2241588;79;29677;-63
2022/01/16 03:30:42;;;;;;;195.57;82.25;;;;;;;-3.39;77.99;101098.11;2241253;79;31711;-62
2022/01/16 03:33:44;;;;;;;209.17;82.43;;;;;;;-3.38;78.05;101091.14;2241376;79;33046;-62
2022/01/16 03:36:47;;;;;;;185.28;80.35;;;;;;;-3.41;77.93;101093.30;2211886;79;29686;-62
2022/01/16 03:39:48;;;;;;;187.15;75.10;;;;;;;-3.42;77.90;101082.35;2241463;79;27532;-62
2022/01/16 03:42:51;;;;;;;170.62;73.72;;;;;;;-3.43;77.81;101076.66;2241418;79;28612;-62
2022/01/16 03:45:52;;;;;;;182.43;79.27;;;;;;;-3.43;77.80;101065.27;2241168;79;31068;-62
2022/01/16 03:48:54;;;;;;;169.13;75.42;;;;;;;-3.44;77.82;101072.67;2211585;79;33128;-61
2022/01/16 03:51:58;;;;;;;188.87;79.32;;;;;;;-3.45;77.77;101061.33;2241381;79;29516;-62
2022/01/16 03:55:00;;;;;;;162.47;75.80;;;;;;;-3.45;77.82;101061.73;2241521;79;27635;-62
2022/01/16 03:58:03;;;;;;;206.80;88.42;;;;;;;-3.46;77.88;101056.94;2240216;79;29806;-62
2022/01/16 04:01:05;;;;;;;197.50;85.72;;;;;;;-3.45;78.09;101040.37;2205757;79;31615;-62
2022/01/16 04:04:07;;;;;;;198.47;81.97;;;;;;;-3.45;78.08;101040.37;2237146;79;34294;-62
2022/01/16 04:07:15;;;;;;;208.15;88.03;;;;;;;-3.46;77.92;101032.05;2237213;79;29900;-62
2022/01/16 04:10:23;;;;;;;192.92;81.50;;;;;;;-3.46;78.28;101035.98;2237146;79;27225;-64
2022/01/16 04:13:27;;;;;;;195.18;80.87;;;;;;;-3.44;78.27;101029.05;2206053;79;28679;-64
2022/01/16 04:16:32;;;;;;;193.78;82.37;;;;;;;-3.42;78.45;101026.03;2237297;79;31015;-62
2022/01/16 04:19:35;;;;;;;199.87;83.40;;;;;;;-3.40;78.43;101024.33;2201549;79;32365;-63
2022/01/16 04:22:38;;;;;;;206.20;89.28;;;;;;;-3.39;78.36;101024.75;2200834;80;30013;-62
2022/01/16 04:25:41;;;;;;;216.88;93.52;;;;;;;-3.40;78.42;101015.16;2175893;80;27820;-62
2022/01/16 04:28:43;;;;;;;211.97;90.35;;;;;;;-3.39;78.45;101019.95;2200576;80;29999;-63
2022/01/16 04:31:45;;;;;;;228.77;102.38;;;;;;;-3.39;78.45;101018.20;2200701;80;31062;-63
2022/01/16 04:34:47;;;;;;;189.93;84.40;;;;;;;-3.40;78.52;101018.19;2200822;79;33733;-62
2022/01/16 04:37:49;;;;;;;192.22;87.08;;;;;;;-3.40;78.64;101014.27;2199864;80;29821;-63
2022/01/16 04:44:16;;;;;;;169.65;74.87;;;;;;;-3.41;78.72;100992.84;2231838;79;28852;-62
2022/01/16 04:47:17;;;;;;;169.02;71.70;;;;;;;-3.43;78.67;100991.52;2237579;79;31788;-62
2022/01/16 04:50:22;;;;;;;168.20;69.40;;;;;;;-3.42;78.53;100996.31;2201579;79;33154;-62
2022/01/16 04:53:23;;;;;;;154.42;68.83;;;;;;;-3.43;78.46;100997.17;2201114;80;29063;-61
2022/01/16 04:56:25;;;;;;;172.05;72.92;;;;;;;-3.45;78.45;100985.37;2235113;79;28207;-63
2022/01/16 04:59:27;;;;;;;193.15;85.45;;;;;;;-3.46;78.56;100980.08;2230245;79;29826;-62
2022/01/16 05:02:29;;;;;;;181.35;81.80;;;;;;;-3.48;78.69;100977.45;2226273;79;31049;-62
2022/01/16 05:05:31;;;;;;;181.20;75.32;;;;;;;-3.48;78.72;100977.45;2225830;79;33118;-63
2022/01/16 05:08:33;;;;;;;166.37;69.37;;;;;;;-3.47;78.81;100966.12;2225778;79;29018;-63
2022/01/16 05:11:38;;;;;;;162.75;69.45;;;;;;;-3.47;78.91;100957.39;2226633;79;27786;-63
2022/01/16 05:18:01;;;;;;;189.70;87.08;;;;;;;-3.45;79.00;100954.34;2218381;79;31098;-63
2022/01/16 05:21:04;;;;;;;177.00;83.35;;;;;;;-3.46;78.99;100946.93;2187725;81;32788;-65
2022/01/16 05:24:10;;;;;;;175.35;78.80;;;;;;;-3.46;79.11;100938.17;2203090;79;30272;-63
2022/01/16 05:27:17;;;;;;;154.55;67.47;;;;;;;-3.47;79.14;100937.75;2232502;79;27624;-64
2022/01/16 05:30:20;;;;;;;161.20;70.00;;;;;;;-3.46;79.20;100931.21;2232822;79;28718;-64
2022/01/16 05:33:23;;;;;;;168.35;68.60;;;;;;;-3.47;79.20;100925.52;2229637;79;31880;-63
2022/01/16 05:36:25;;;;;;;159.65;68.45;;;;;;;-3.45;79.22;100929.46;2211037;80;32377;-64
2022/01/16 05:39:34;;;;;;;156.97;66.17;;;;;;;-3.46;79.19;100918.52;2229316;79;29884;-63
2022/01/16 05:42:41;;;;;;;157.35;68.70;;;;;;;-3.46;79.23;100917.22;2230138;79;27702;-63
2022/01/16 05:45:48;;;;;;;152.22;66.53;;;;;;;-3.44;79.21;100917.72;2205470;79;27700;-63
2022/01/16 05:48:53;;;;;;;148.05;66.42;;;;;;;-3.45;79.19;100901.96;2263079;78;31057;-64
2022/01/16 05:52:20;;;;;;;148.55;65.87;;;;;;;-3.44;79.21;100905.94;2183773;81;33484;-64
2022/01/16 05:55:09;;;;;;;165.80;69.60;;;;;;;-3.44;79.17;100903.73;2178194;80;27750;-63
2022/01/16 05:58:14;;;;;;;162.57;67.00;;;;;;;-3.46;79.13;100899.78;2190895;78;27743;-63
2022/01/16 06:01:21;;;;;;;157.12;64.55;;;;;;;-3.48;79.13;100898.00;2188860;80;28694;-64
2022/01/16 06:04:32;;;;;;;149.93;65.22;;;;;;;-3.48;79.14;100895.38;2256495;78;27704;-64
2022/01/16 06:07:45;;;;;;;163.40;67.55;;;;;;;-3.51;79.15;100884.41;2202981;79;33074;-64
2022/01/16 06:10:47;;;;;;;153.15;65.85;;;;;;;-3.51;79.10;100882.69;2230045;79;29046;-65
2022/01/16 06:13:55;;;;;;;150.47;68.25;;;;;;;-3.51;79.08;100886.61;2208391;80;27787;-63
2022/01/16 06:17:00;;;;;;;158.90;68.87;;;;;;;-3.53;79.12;100884.39;2190950;80;28632;-63
2022/01/16 06:20:07;;;;;;;160.65;66.82;;;;;;;-3.53;79.12;100879.16;2115714;84;31214;-62
2022/01/16 06:23:12;;;;;;;154.57;67.65;;;;;;;-3.53;79.12;100874.33;2069234;84;33712;-63
2022/01/16 06:26:14;;;;;;;147.68;65.25;;;;;;;-3.55;79.15;100860.31;2115768;84;29036;-63
2022/01/16 06:29:20;;;;;;;168.85;67.95;;;;;;;-3.55;79.15;100861.63;2115736;84;27804;-63
2022/01/16 06:32:22;;;;;;;161.73;66.85;;;;;;;-3.57;79.17;100858.13;2092499;84;28666;-65
2022/01/16 06:35:24;;;;;;;151.68;66.87;;;;;;;-3.59;79.25;100850.67;2091566;84;31933;-64
2022/01/16 06:38:29;;;;;;;148.00;66.10;;;;;;;-3.60;79.25;100852.83;2114152;84;28105;-62
2022/01/16 06:41:34;;;;;;;154.27;65.87;;;;;;;-3.62;79.33;100842.31;2091897;84;27744;-63
2022/01/16 06:44:37;;;;;;;156.07;68.17;;;;;;;-3.63;79.40;100838.38;2115686;84;27581;-64
2022/01/16 06:47:40;;;;;;;163.03;67.60;;;;;;;-3.64;79.43;100837.91;2119809;82;29045;-63
2022/01/16 06:50:47;;;;;;;154.68;67.20;;;;;;;-3.63;79.43;100833.14;2114888;84;31890;-64
2022/01/16 06:53:50;;;;;;;155.00;68.15;;;;;;;-3.63;79.43;100840.55;2114888;84;32973;-64
2022/01/16 06:56:54;;;;;;;155.52;65.10;;;;;;;-3.62;79.43;100836.21;2115217;84;30900;-64
2022/01/16 07:00:00;;;;;;;153.23;70.42;;;;;;;-3.61;79.40;100835.36;2114824;84;27735;-63
2022/01/16 07:03:11;;;;;;;159.30;65.55;;;;;;;-3.61;79.38;100836.66;2092425;84;30786;-63
2022/01/16 07:06:14;;;;;;;152.47;68.50;;;;;;;-3.59;79.35;100839.75;2092006;84;31195;-63
2022/01/16 07:09:19;;;;;;;155.48;67.70;;;;;;;-3.56;79.41;100831.95;2125036;79;35177;-63
2022/01/16 07:12:26;;;;;;;159.78;67.72;;;;;;;-3.53;79.39;100832.02;2236541;79;29897;-62
2022/01/16 07:15:33;;;;;;;153.97;63.75;;;;;;;-3.49;79.28;100828.14;2230226;79;27610;-64
2022/01/16 07:18:40;;;;;;;153.55;63.95;;;;;;;-3.48;79.31;100817.67;2237142;78;28645;-63
2022/01/16 07:21:44;;;;;;;144.60;60.60;;;;;;;-3.44;79.30;100821.22;2237307;79;31375;-63
2022/01/16 07:24:50;;;;;;;140.25;61.48;;;;;;;-3.43;79.19;100818.64;2237471;79;32948;-63
2022/01/16 07:27:52;;;;;;;135.10;58.63;;;;;;;-3.42;79.18;100817.79;2237888;79;29121;-64
2022/01/16 07:30:56;;;;;;;137.52;61.25;;;;;;;-3.38;79.16;100820.02;2237669;79;27686;-64
2022/01/16 07:33:59;;;;;;;117.97;53.30;;;;;;;-3.34;79.15;100825.77;2237852;79;29525;-63
2022/01/16 07:37:01;;;;;;;144.20;63.98;;;;;;;-3.30;79.16;100826.69;2237873;79;31121;-63
2022/01/16 07:40:04;;;;;;;137.12;60.55;;;;;;;-3.24;79.32;100822.86;2237210;79;32891;-62
2022/01/16 07:43:08;;;;;;;137.45;61.20;;;;;;;-3.14;79.33;100826.06;2236870;79;29121;-63
2022/01/16 07:46:10;;;;;;;128.32;61.90;;;;;;;-3.05;79.29;100830.56;2237977;79;27599;-63
2022/01/16 07:49:12;;;;;;;155.78;69.72;;;;;;;-2.97;79.35;100819.75;2237355;79;29455;-63
2022/01/16 07:52:14;;;;;;;152.38;66.30;;;;;;;-2.79;79.41;100815.62;2206404;79;30994;-63
2022/01/16 07:55:20;;;;;;;143.40;67.12;;;;;;;-2.68;79.28;100811.41;2237391;79;33693;-64
2022/01/16 07:58:21;;;;;;;144.07;65.10;;;;;;;-2.52;79.16;100812.47;2237639;79;29097;-62
2022/01/16 08:01:23;;;;;;;147.17;65.72;;;;;;;-2.36;79.02;100808.31;2237160;79;27727;-62
2022/01/16 08:04:29;;;;;;;139.50;61.98;;;;;;;-2.19;79.11;100815.48;2114741;84;31165;-63
2022/01/16 08:07:36;;;;;;;133.47;61.80;;;;;;;-2.01;78.99;100813.06;2114445;84;31253;-64
2022/01/16 08:10:38;;;;;;;145.12;64.25;;;;;;;-1.91;78.84;100812.73;2114570;84;32962;-63
2022/01/16 08:13:43;;;;;;;190.70;84.87;;;;;;;-1.79;78.77;100800.56;2114476;84;29635;-64
2022/01/16 08:16:51;;;;;;;132.10;64.20;;;;;;;-1.71;78.67;100806.75;2140375;82;27707;-65
2022/01/16 08:20:02;;;;;;;137.30;63.90;;;;;;;-1.62;78.61;100799.39;2127255;82;28717;-64
2022/01/16 08:23:14;;;;;;;138.45;62.95;;;;;;;-1.55;78.57;100790.25;2126558;82;30446;-65
2022/01/16 08:26:20;;;;;;;130.55;61.90;;;;;;;-1.46;78.46;100797.78;2023124;87;34207;-64
2022/01/16 08:29:24;;;;;;;128.95;61.68;;;;;;;-1.38;78.49;100795.66;2023884;87;27315;-63
2022/01/16 08:32:26;;;;;;;129.93;59.20;;;;;;;-1.28;78.57;100788.72;2024568;87;27777;-63
2022/01/16 08:35:27;;;;;;;172.98;77.37;;;;;;;-1.17;78.37;100791.84;2073360;83;28912;-61
2022/01/16 08:38:32;;;;;;;125.90;61.55;;;;;;;-1.08;78.30;100784.90;2090223;83;32405;-66
2022/01/16 08:41:37;;;;;;;127.75;61.40;;;;;;;-1.03;78.27;100789.31;2122936;83;32420;-64
2022/01/16 08:44:38;;;;;;;140.32;64.82;;;;;;;-0.94;78.09;100773.57;2122152;82;30005;-63
2022/01/16 08:47:40;;;;;;;124.97;61.55;;;;;;;-0.82;78.22;100763.11;2122159;83;27771;-63
2022/01/16 08:50:43;;;;;;;133.43;63.30;;;;;;;-0.72;78.29;100760.53;2120438;83;29720;-66
2022/01/16 08:53:46;;;;;;;129.85;59.65;;;;;;;-0.57;78.49;100754.44;2115814;84;31277;-65
2022/01/16 08:56:47;;;;;;;122.87;56.63;;;;;;;-0.46;78.27;100733.00;2115738;84;33584;-64
2022/01/16 08:59:49;;;;;;;137.85;62.25;;;;;;;-0.39;77.83;100730.80;2116045;83;29014;-65
2022/01/16 09:02:51;;;;;;;134.37;62.62;;;;;;;-0.31;77.92;100726.88;2117373;84;27974;-66
2022/01/16 09:05:54;;;;;;;134.07;60.45;;;;;;;-0.25;77.83;100727.34;2103747;84;30067;-67
2022/01/16 09:08:56;;;;;;;119.55;58.45;;;;;;;-0.16;78.03;100722.94;2082030;85;31901;-66
2022/01/16 09:11:58;;;;;;;157.25;72.27;;;;;;;-0.04;78.22;100715.95;2104431;83;32980;-69
2022/01/16 09:14:59;;;;;;;135.22;61.73;;;;;;;0.12;78.17;100721.67;2109909;83;29146;-70
2022/01/16 09:18:01;;;;;;;127.78;60.92;;;;;;;0.29;77.95;100724.28;2086667;85;27775;-72
2022/01/16 09:21:03;;;;;;;160.25;74.05;;;;;;;0.42;77.66;100719.89;2085625;85;28569;-67
2022/01/16 09:24:06;;;;;;;185.90;85.28;;;;;;;0.50;77.38;100713.30;2080425;83;31033;-69
2022/01/16 09:27:08;;;;;;;119.50;57.93;;;;;;;0.52;76.99;100706.27;2112720;83;33861;-67
2022/01/16 09:30:11;;;;;;;116.47;57.48;;;;;;;0.60;77.04;100704.93;2195005;80;29017;-68
2022/01/16 09:33:13;;;;;;;112.90;56.23;;;;;;;0.70;77.26;100706.66;2215775;79;27757;-68
2022/01/16 09:36:14;;;;;;;124.70;60.75;;;;;;;0.85;77.30;100712.34;2193195;81;28722;-69
2022/01/16 09:39:16;;;;;;;128.10;57.70;;;;;;;0.96;76.70;100713.62;2229321;79;30987;-67
2022/01/16 09:42:17;;;;;;;121.57;59.65;;;;;;;1.04;76.50;100717.56;2220994;80;32939;-67
2022/01/16 09:45:20;;;;;;;120.75;56.63;;;;;;;1.07;76.47;100721.52;2243866;78;29790;-69
2022/01/16 09:48:22;;;;;;;128.68;62.80;;;;;;;1.15;76.56;100730.27;2239678;79;27526;-68
2022/01/16 09:51:24;;;;;;;118.97;58.87;;;;;;;1.21;76.50;100726.29;2239728;79;28807;-68
2022/01/16 09:54:26;;;;;;;111.00;55.98;;;;;;;1.25;76.41;100723.61;2239488;79;31003;-68
2022/01/16 09:57:28;;;;;;;110.40;55.85;;;;;;;1.33;76.53;100712.13;2239502;79;33101;-68
2022/01/16 10:00:29;;;;;;;127.12;63.02;;;;;;;1.41;76.41;100707.27;2257737;78;29013;-68
2022/01/16 10:03:46;;;;;;;134.30;66.90;;;;;;;1.47;76.37;100704.16;2277289;78;27615;-68
2022/01/16 10:07:04;;;;;;;118.25;60.58;;;;;;;1.49;76.08;100705.02;2276613;78;29515;-68
2022/01/16 10:10:12;;;;;;;128.07;60.80;;;;;;;1.51;75.94;100695.34;2276965;78;31016;-69
2022/01/16 10:13:24;;;;;;;114.47;57.62;;;;;;;1.54;75.96;100699.71;2269448;77;32378;-67
2022/01/16 10:16:30;;;;;;;118.20;60.58;;;;;;;1.60;75.98;100696.15;2266261;78;29079;-68
2022/01/16 10:19:32;;;;;;;113.83;58.45;;;;;;;1.64;75.84;100695.25;2269051;78;27741;-68
2022/01/16 10:22:41;;;;;;;119.50;57.17;;;;;;;1.66;75.89;100690.84;2269154;78;29262;-67
2022/01/16 10:25:47;;;;;;;108.90;55.43;;;;;;;1.69;75.76;100689.50;2272113;77;31025;-69
2022/01/16 10:28:52;;;;;;;111.52;59.90;;;;;;;1.74;75.55;100677.13;2275656;78;33782;-69
2022/01/16 10:31:57;;;;;;;;;;;;;;;1.78;75.60;100675.36;2257076;79;29013;-67
2022/01/16 10:35:17;;;;;;;119.13;61.42;;;;;;;1.83;75.61;100665.61;2212224;80;27586;-68
2022/01/16 10:38:26;;;;;;;119.72;59.95;;;;;;;1.85;75.58;100657.70;2240199;79;28863;-68
2022/01/16 10:41:28;;;;;;;108.52;54.15;;;;;;;1.88;75.35;100649.75;2214410;80;31010;-67
2022/01/16 10:44:31;;;;;;;106.00;56.00;;;;;;;1.85;75.07;100637.42;2240907;79;33109;-69
2022/01/16 10:47:42;;;;;;;110.35;56.70;;;;;;;1.84;75.22;100632.16;2214491;80;29007;-68
2022/01/16 10:50:47;;;;;;;108.85;56.10;;;;;;;1.90;75.52;100626.84;2250047;77;27766;-68
2022/01/16 10:53:48;;;;;;;105.32;55.00;;;;;;;1.99;75.56;100610.89;2265140;77;28861;-69
2022/01/16 10:56:50;;;;;;;105.83;55.43;;;;;;;2.11;75.75;100604.16;2281145;78;31248;-69
2022/01/16 11:00:21;;;;;;;102.80;52.25;;;;;;;2.24;75.65;100594.34;2239095;78;33128;-68
2022/01/16 11:03:26;;;;;;;123.15;58.68;;;;;;;2.39;75.49;100587.14;2202973;80;29051;-67
2022/01/16 11:06:28;;;;;;;110.28;55.43;;;;;;;2.56;75.66;100593.11;2201697;80;27713;-66
2022/01/16 11:09:31;;;;;;;109.10;54.45;;;;;;;2.72;75.21;100595.56;2200574;80;28654;-68
2022/01/16 11:12:36;;;;;;;110.22;56.10;;;;;;;2.86;75.31;100590.11;2202069;80;31841;-67
2022/01/16 11:15:39;;;;;;;;;;;;;;;2.93;74.89;100586.47;2219637;79;32862;-67
2022/01/16 11:18:48;;;;;;;106.17;53.55;;;;;;;3.01;74.86;100579.31;2304509;77;29005;-68
2022/01/16 11:21:48;;;;;;;110.10;53.95;;;;;;;3.11;74.85;100585.36;2262851;78;27623;-68
2022/01/16 11:25:01;;;;;;;;;;;;;;;3.22;74.97;100587.86;2266322;78;28632;-68
2022/01/16 11:27:52;;;;;;;102.38;52.88;;;;;;;3.34;74.27;100578.83;2265498;77;32143;-68
2022/01/16 11:30:58;;;;;;;100.35;52.62;;;;;;;3.36;74.46;100579.69;2299123;77;32938;-69
2022/01/16 11:34:00;;;;;;;105.00;53.25;;;;;;;3.49;74.44;100578.59;2263363;78;29016;-67
2022/01/16 11:37:02;;;;;;;126.07;63.45;;;;;;;3.63;74.59;100584.14;2263465;78;27707;-66
2022/01/16 11:40:28;;;;;;;97.35;51.37;;;;;;;3.78;74.52;100572.39;2263283;78;28674;-68
2022/01/16 11:43:36;;;;;;;103.15;52.20;;;;;;;3.93;74.39;100578.74;2263407;78;31877;-68
2022/01/16 11:46:42;;;;;;;109.52;54.55;;;;;;;4.09;74.26;100578.03;2263343;78;32951;-68
2022/01/16 11:49:43;;;;;;;97.70;53.00;;;;;;;4.21;74.09;100573.39;2267920;77;29048;-67
2022/01/16 11:52:47;;;;;;;107.63;52.90;;;;;;;4.35;73.85;100569.16;2305134;77;27671;-68
2022/01/16 11:55:48;;;;;;;101.78;52.13;;;;;;;4.41;73.15;100555.32;2276824;77;28710;-67
2022/01/16 11:59:15;;;;;;;103.42;52.25;;;;;;;4.47;73.14;100549.48;2262362;78;31006;-68
2022/01/16 12:02:23;;;;;;;102.35;52.20;;;;;;;4.56;73.40;100547.95;2229804;78;32932;-67
2022/01/16 12:05:27;;;;;;;99.97;52.70;;;;;;;4.64;72.74;100539.83;2190246;81;29062;-67
2022/01/16 12:08:35;;;;;;;102.75;55.85;;;;;;;4.65;72.92;100546.89;2216927;79;27723;-67
2022/01/16 12:11:38;;;;;;;107.58;54.70;;;;;;;4.73;72.82;100538.76;2230520;79;28626;-67
2022/01/16 12:15:06;;;;;;;100.97;52.23;;;;;;;4.79;72.88;100526.69;2241928;78;31017;-68
2022/01/16 12:18:13;;;;;;;97.88;51.33;;;;;;;4.86;72.50;100522.98;2242026;78;32974;-68
2022/01/16 12:21:30;;;;;;;118.53;58.15;;;;;;;4.88;72.44;100516.33;2236412;78;29328;-66
2022/01/16 12:24:37;;;;;;;113.83;57.88;;;;;;;4.93;72.32;100517.08;2233049;78;27693;-71
2022/01/16 12:27:46;;;;;;;108.03;53.33;;;;;;;5.00;72.35;100514.71;2254150;78;28640;-71
2022/01/16 12:30:59;;;;;;;95.87;50.98;;;;;;;5.06;72.13;100511.89;2226183;78;31027;-69
2022/01/16 12:34:00;;;;;;;96.92;52.03;;;;;;;5.09;72.09;100505.19;2239859;78;32986;-70
2022/01/16 12:37:01;;;;;;;96.17;53.13;;;;;;;5.18;72.07;100497.45;2239962;78;28552;-69
2022/01/16 12:40:04;;;;;;;100.40;51.95;;;;;;;5.21;71.93;100493.88;2238358;78;27673;-68
2022/01/16 12:43:15;;;;;;;105.97;61.85;;;;;;;5.28;71.75;100494.13;2218552;79;28707;-68
2022/01/16 12:46:19;;;;;;;103.75;54.25;;;;;;;5.31;71.76;100484.76;2218072;80;31028;-68
2022/01/16 12:49:26;;;;;;;101.70;52.73;;;;;;;5.36;71.76;100485.96;2217231;79;33068;-69
2022/01/16 12:52:28;;;;;;;99.32;54.27;;;;;;;5.41;71.23;100481.41;2218566;80;29020;-67
2022/01/16 12:55:33;;;;;;;102.97;52.05;;;;;;;5.45;71.54;100481.30;2228844;79;27744;-69
2022/01/16 12:58:34;;;;;;;118.35;62.25;;;;;;;5.44;71.19;100471.58;2203945;79;28829;-67
2022/01/16 13:01:36;;;;;;;111.50;61.15;;;;;;;5.47;71.00;100479.47;2243801;78;30993;-67
2022/01/16 13:04:44;;;;;;;112.52;55.65;;;;;;;5.50;71.39;100485.16;2242796;79;32990;-68
2022/01/16 13:07:46;;;;;;;116.05;57.35;;;;;;;5.54;71.02;100485.50;2247242;79;29063;-66
2022/01/16 13:10:47;;;;;;;130.78;68.37;;;;;;;5.55;70.80;100491.67;2258464;78;27803;-68
2022/01/16 13:13:49;;;;;;;130.87;71.17;;;;;;;5.54;70.81;100481.52;2258368;78;29551;-67
2022/01/16 13:16:54;;;;;;;140.60;75.70;;;;;;;5.51;70.66;100479.40;2257865;78;31048;-66
2022/01/16 13:19:58;;;;;;;139.90;75.52;;;;;;;5.46;70.74;100467.09;2258439;78;32967;-68
2022/01/16 13:22:59;;;;;;;182.95;97.53;;;;;;;5.44;70.59;100472.05;2257987;78;29085;-67
2022/01/16 13:26:01;;;;;;;171.65;94.47;;;;;;;5.42;70.65;100465.42;2258236;78;27744;-69
2022/01/16 13:29:06;;;;;;;163.18;91.53;;;;;;;5.41;70.73;100460.16;2258127;78;28705;-68
2022/01/16 13:32:10;;;;;;;139.18;76.70;;;;;;;5.41;70.84;100446.41;2226970;78;31650;-67
2022/01/16 13:35:22;;;;;;;140.25;73.37;;;;;;;5.39;70.76;100450.02;2237748;78;33149;-67
2022/01/16 13:38:29;;;;;;;131.70;68.40;;;;;;;5.38;70.52;100438.98;2223890;78;29029;-70
2022/01/16 13:41:31;;;;;;;122.35;64.90;;;;;;;5.30;70.64;100438.70;2235326;79;28277;-71
2022/01/16 13:44:33;;;;;;;130.78;67.85;;;;;;;5.28;70.50;100433.03;2234377;79;28724;-68
2022/01/16 13:47:35;;;;;;;110.28;58.85;;;;;;;5.23;70.44;100435.81;2235384;79;31817;-70
2022/01/16 13:50:53;;;;;;;106.27;59.33;;;;;;;5.22;70.52;100442.47;2236254;78;33030;-68
2022/01/16 13:53:55;;;;;;;116.60;58.30;;;;;;;5.20;70.50;100437.20;2190032;81;29045;-69
2022/01/16 13:57:00;;;;;;;106.75;54.58;;;;;;;5.18;70.61;100441.69;2183376;80;27856;-69
2022/01/16 14:00:06;;;;;;;107.83;56.37;;;;;;;5.16;70.62;100443.50;2207742;80;28685;-70
2022/01/16 14:03:11;;;;;;;100.92;54.90;;;;;;;5.14;70.66;100443.55;2259813;78;31019;-69
2022/01/16 14:06:16;;;;;;;123.18;61.55;;;;;;;5.11;70.62;100440.11;2265779;77;33199;-70
2022/01/16 14:09:18;;;;;;;115.97;62.73;;;;;;;5.06;70.56;100439.34;2265446;78;29220;-70
2022/01/16 14:12:20;;;;;;;141.60;74.55;;;;;;;4.97;70.56;100447.08;2264689;78;27643;-68
2022/01/16 14:15:22;;;;;;;140.22;75.28;;;;;;;4.91;70.55;100452.52;2285924;77;28629;-67
2022/01/16 14:18:39;;;;;;;130.32;70.92;;;;;;;4.82;70.51;100455.83;2306224;77;31187;-68
2022/01/16 14:24:51;;;;;;;133.55;68.67;;;;;;;4.65;70.57;100453.54;2306099;77;29032;-72
2022/01/16 14:27:56;;;;;;;125.50;69.30;;;;;;;4.57;70.61;100455.52;2307112;77;27698;-71
2022/01/16 14:30:58;;;;;;;125.05;67.17;;;;;;;4.49;70.63;100449.48;2306673;77;29477;-70
2022/01/16 14:33:59;;;;;;;132.72;69.05;;;;;;;4.39;70.62;100448.38;2306989;77;31647;-67
2022/01/16 14:37:01;;;;;;;132.27;65.42;;;;;;;4.31;70.63;100459.58;2289825;77;33600;-69
2022/01/16 14:40:05;;;;;;;135.07;69.82;;;;;;;4.23;70.71;100469.50;2296456;77;29025;-67
2022/01/16 14:43:14;;;;;;;140.15;72.25;;;;;;;4.14;70.70;100471.02;2306390;77;27727;-69